Time;durP1;ratioP1;P1;durP2;ratioP2;P2;SDS_P1;SDS_P2;PMS_P1;PMS_P2;Temp;Humidity;BMP_temperature;BMP_pressure;BME280_temperature;BME280_humidity;BME280_pressure;Samples;Min_cycle;Max_cycle;Signal;HPM_P1;HPM_P2
2021/07/17 00:00:12;;;;;;;26.50;13.93;;;19.70;99.90;;;;;;5007501;28;20089;-90
2021/07/17 00:02:39;;;;;;;22.17;12.68;;;19.80;99.90;;;;;;5013020;28;20526;-89
2021/07/17 00:05:14;;;;;;;24.27;13.02;;;19.80;99.90;;;;;;5003642;28;20062;-90
2021/07/17 00:07:42;;;;;;;27.00;13.05;;;19.80;99.90;;;;;;4996881;28;20133;-89
2021/07/17 00:10:17;;;;;;;24.13;12.40;;;19.80;99.90;;;;;;4996533;28;20497;-90
2021/07/17 00:12:44;;;;;;;22.77;12.00;;;19.80;99.90;;;;;;4996606;28;20093;-89
2021/07/17 00:15:13;;;;;;;20.15;11.73;;;19.80;99.90;;;;;;4996358;28;20046;-89
2021/07/17 00:17:44;;;;;;;27.30;13.45;;;19.80;99.90;;;;;;4996282;28;20137;-89
2021/07/17 00:20:13;;;;;;;34.63;13.93;;;19.80;99.90;;;;;;4996844;28;20054;-90
2021/07/17 00:22:39;;;;;;;18.65;11.82;;;19.80;99.90;;;;;;4996669;28;20065;-90
2021/07/17 00:25:18;;;;;;;24.98;13.10;;;19.60;99.90;;;;;;4996841;28;20061;-90
2021/07/17 00:27:46;;;;;;;26.77;13.25;;;19.60;99.90;;;;;;4995874;28;20470;-89
2021/07/17 00:30:14;;;;;;;32.33;15.27;;;19.60;99.90;;;;;;4996474;28;20559;-88
2021/07/17 00:32:41;;;;;;;28.52;13.88;;;19.50;99.90;;;;;;4996270;28;20138;-90
2021/07/17 00:35:08;;;;;;;27.65;14.00;;;19.50;99.90;;;;;;4995887;28;20141;-89
2021/07/17 00:37:35;;;;;;;28.50;13.23;;;19.40;99.90;;;;;;4996376;28;20050;-90
2021/07/17 00:40:03;;;;;;;21.88;12.43;;;19.50;99.90;;;;;;4995984;28;20141;-90
2021/07/17 00:42:31;;;;;;;21.10;11.77;;;19.50;99.90;;;;;;4996565;28;20054;-90
2021/07/17 00:44:57;;;;;;;26.33;11.50;;;19.60;99.90;;;;;;4996125;28;20076;-90
2021/07/17 00:47:30;;;;;;;29.38;12.98;;;19.60;99.90;;;;;;4996103;28;20082;-90
2021/07/17 00:49:57;;;;;;;29.33;12.85;;;19.50;99.90;;;;;;4995705;28;20639;-89
2021/07/17 00:52:24;;;;;;;25.77;13.32;;;19.50;99.90;;;;;;4996184;28;20058;-90
2021/07/17 00:54:51;;;;;;;28.63;13.00;;;19.50;99.90;;;;;;4995957;28;20419;-89
2021/07/17 00:57:19;;;;;;;27.40;12.13;;;19.50;99.90;;;;;;4995835;28;20495;-89
2021/07/17 00:59:49;;;;;;;25.52;12.13;;;19.50;99.90;;;;;;4995869;28;20054;-90
2021/07/17 01:02:19;;;;;;;30.63;12.85;;;19.50;99.90;;;;;;4996104;28;20112;-90
2021/07/17 01:04:46;;;;;;;26.90;12.25;;;19.50;99.90;;;;;;4995842;28;20475;-90
2021/07/17 01:07:14;;;;;;;32.03;12.60;;;19.40;99.90;;;;;;4996029;28;20133;-90
2021/07/17 01:09:40;;;;;;;25.30;12.07;;;19.40;99.90;;;;;;4995430;28;20050;-90
2021/07/17 01:12:07;;;;;;;20.90;10.57;;;19.30;99.90;;;;;;5001217;28;20058;-89
2021/07/17 01:14:34;;;;;;;20.98;11.13;;;19.30;99.90;;;;;;4998186;28;20054;-90
2021/07/17 01:17:01;;;;;;;26.50;12.40;;;19.30;99.90;;;;;;4995548;28;20528;-90
2021/07/17 01:19:28;;;;;;;22.55;10.63;;;19.30;99.90;;;;;;4995738;28;20046;-90
2021/07/17 01:21:55;;;;;;;26.80;11.38;;;19.30;99.90;;;;;;4995490;28;20050;-90
2021/07/17 01:24:24;;;;;;;29.50;11.98;;;19.30;99.90;;;;;;4995768;28;20519;-91
2021/07/17 01:26:52;;;;;;;26.85;11.32;;;19.30;99.90;;;;;;4995422;28;20054;-91
2021/07/17 01:29:19;;;;;;;30.83;12.13;;;19.30;99.90;;;;;;4995271;28;20514;-91
2021/07/17 01:31:47;;;;;;;23.42;11.68;;;19.20;99.90;;;;;;4994824;28;20062;-90
2021/07/17 01:34:14;;;;;;;21.58;10.48;;;19.30;99.90;;;;;;4995410;28;20053;-89
2021/07/17 01:36:41;;;;;;;25.63;11.00;;;19.30;99.90;;;;;;4994992;28;20058;-89
2021/07/17 01:39:08;;;;;;;21.95;11.35;;;19.30;99.90;;;;;;4995077;28;20054;-91
2021/07/17 01:41:34;;;;;;;22.75;10.75;;;19.40;99.90;;;;;;4995016;28;20050;-91
2021/07/17 01:44:01;;;;;;;29.83;11.75;;;19.40;99.90;;;;;;4995072;28;20057;-90
2021/07/17 01:46:28;;;;;;;21.40;11.35;;;19.30;99.90;;;;;;4994843;28;20051;-90
2021/07/17 01:48:56;;;;;;;22.67;10.90;;;19.40;99.90;;;;;;4995123;28;20054;-90
2021/07/17 01:51:24;;;;;;;18.70;11.60;;;19.40;99.90;;;;;;4995053;28;20062;-90
2021/07/17 01:53:56;;;;;;;22.77;10.70;;;19.40;99.90;;;;;;4994990;28;20145;-90
2021/07/17 01:56:25;;;;;;;27.30;11.02;;;19.40;99.90;;;;;;4994491;28;20142;-90
2021/07/17 01:58:52;;;;;;;25.42;12.38;;;19.40;99.90;;;;;;4994837;28;20081;-90
2021/07/17 02:01:20;;;;;;;21.58;11.80;;;19.30;99.90;;;;;;4994880;28;20141;-91
2021/07/17 02:03:49;;;;;;;27.42;11.95;;;19.30;99.90;;;;;;4994534;28;20061;-90
2021/07/17 02:06:25;;;;;;;26.98;11.93;;;19.30;99.90;;;;;;4994621;28;20081;-89
2021/07/17 02:08:53;;;;;;;25.50;12.00;;;19.30;99.90;;;;;;4994646;28;20054;-90
2021/07/17 02:11:20;;;;;;;23.27;11.85;;;19.30;99.90;;;;;;4994572;28;20077;-90
2021/07/17 02:13:51;;;;;;;25.17;11.07;;;19.30;99.90;;;;;;4994164;28;20525;-90
2021/07/17 02:16:22;;;;;;;23.80;11.25;;;19.30;99.90;;;;;;4999423;28;20057;-89
2021/07/17 02:18:50;;;;;;;17.65;10.27;;;19.30;99.90;;;;;;5006481;28;20050;-90
2021/07/17 02:21:17;;;;;;;22.08;11.07;;;19.30;99.90;;;;;;5005436;28;20559;-90
2021/07/17 02:23:45;;;;;;;21.58;10.98;;;19.30;99.90;;;;;;4993453;28;20055;-90
2021/07/17 02:26:12;;;;;;;22.42;11.18;;;19.30;99.90;;;;;;4993732;28;20074;-92
2021/07/17 02:28:39;;;;;;;28.92;12.70;;;19.20;99.90;;;;;;4994662;28;20046;-91
2021/07/17 02:31:07;;;;;;;24.67;11.70;;;19.10;99.90;;;;;;5001203;28;20082;-90
2021/07/17 02:33:34;;;;;;;24.58;12.43;;;19.00;99.90;;;;;;5013582;28;20038;-91
2021/07/17 02:36:00;;;;;;;25.88;11.63;;;19.10;99.90;;;;;;5004359;28;20129;-89
2021/07/17 02:38:27;;;;;;;28.20;13.05;;;18.90;99.90;;;;;;4993967;28;20554;-88
2021/07/17 02:40:54;;;;;;;26.23;13.63;;;18.80;99.90;;;;;;4993958;28;20058;-86
2021/07/17 02:43:21;;;;;;;37.30;16.60;;;18.80;99.90;;;;;;5001934;28;20118;-86
2021/07/17 02:45:48;;;;;;;27.48;15.65;;;18.60;99.90;;;;;;5003995;28;20055;-86
2021/07/17 02:48:14;;;;;;;26.27;15.68;;;18.60;99.90;;;;;;4998043;28;20559;-86
2021/07/17 02:50:41;;;;;;;37.05;18.35;;;18.40;99.90;;;;;;4993374;28;20442;-86
2021/07/17 02:53:09;;;;;;;30.90;16.75;;;18.40;99.90;;;;;;4994403;28;20062;-86
2021/07/17 02:55:36;;;;;;;35.75;19.52;;;18.40;99.90;;;;;;4993128;28;20074;-85
2021/07/17 02:58:03;;;;;;;34.17;18.70;;;18.30;99.90;;;;;;4994338;28;20132;-85
2021/07/17 03:00:33;;;;;;;34.05;19.20;;;18.20;99.90;;;;;;4993112;28;20137;-85
2021/07/17 03:03:02;;;;;;;30.60;18.27;;;18.10;99.90;;;;;;4992963;28;20502;-85
2021/07/17 03:05:30;;;;;;;36.10;19.98;;;18.10;99.90;;;;;;4992811;28;20051;-85
2021/07/17 03:07:57;;;;;;;39.00;22.33;;;18.10;99.90;;;;;;4993962;28;20465;-85
2021/07/17 03:10:24;;;;;;;34.70;22.73;;;18.10;99.90;;;;;;4992977;28;20046;-85
2021/07/17 03:12:51;;;;;;;34.83;21.30;;;18.00;99.90;;;;;;4992834;28;20058;-84
2021/07/17 03:15:18;;;;;;;44.13;23.27;;;18.00;99.90;;;;;;4992798;28;20042;-85
2021/07/17 03:17:45;;;;;;;37.33;21.48;;;18.00;99.90;;;;;;4993662;28;20050;-84
2021/07/17 03:20:12;;;;;;;35.00;21.52;;;18.10;99.90;;;;;;4992873;28;20050;-84
2021/07/17 03:22:39;;;;;;;40.97;23.27;;;18.10;99.90;;;;;;4992907;28;20494;-85
2021/07/17 03:25:07;;;;;;;38.33;24.95;;;18.10;99.90;;;;;;4993664;28;20050;-85
2021/07/17 03:27:35;;;;;;;36.95;23.77;;;18.10;99.90;;;;;;4992807;28;20054;-86
2021/07/17 03:30:04;;;;;;;34.83;21.75;;;18.10;99.90;;;;;;4992873;28;20474;-85
2021/07/17 03:32:31;;;;;;;35.20;21.67;;;18.10;99.90;;;;;;4993526;28;20137;-85
2021/07/17 03:34:58;;;;;;;32.72;21.33;;;18.10;99.90;;;;;;4992618;28;20506;-85
2021/07/17 03:37:25;;;;;;;37.35;22.58;;;18.00;99.90;;;;;;4996720;28;20060;-84
2021/07/17 03:39:52;;;;;;;37.72;22.73;;;18.00;99.90;;;;;;4997767;28;20509;-85
2021/07/17 03:42:19;;;;;;;39.05;24.33;;;17.90;99.90;;;;;;4996543;28;20054;-85
2021/07/17 03:44:46;;;;;;;35.65;21.63;;;17.90;99.90;;;;;;4997594;28;20509;-85
2021/07/17 03:47:13;;;;;;;37.10;21.98;;;17.90;99.90;;;;;;4997119;28;20511;-85
2021/07/17 03:49:40;;;;;;;40.45;21.75;;;17.90;99.90;;;;;;5009407;28;20056;-85
2021/07/17 03:52:07;;;;;;;34.83;20.30;;;18.00;99.90;;;;;;5000818;28;20061;-85
2021/07/17 03:54:34;;;;;;;32.80;20.75;;;17.90;99.90;;;;;;4996534;28;20105;-85
2021/07/17 03:57:00;;;;;;;28.67;20.98;;;17.90;99.90;;;;;;4996973;28;20054;-84
2021/07/17 03:59:27;;;;;;;26.25;20.63;;;17.90;99.90;;;;;;4997278;28;20050;-85
2021/07/17 04:01:54;;;;;;;28.30;20.40;;;18.00;99.90;;;;;;4995998;28;20084;-84
2021/07/17 04:04:22;;;;;;;27.20;20.70;;;18.00;99.90;;;;;;4996526;28;20050;-85
2021/07/17 04:06:49;;;;;;;30.80;20.85;;;18.10;99.90;;;;;;4996315;28;20455;-85
2021/07/17 04:09:16;;;;;;;41.65;21.30;;;18.10;99.90;;;;;;4996307;28;20080;-85
2021/07/17 04:11:42;;;;;;;27.02;19.60;;;18.00;99.90;;;;;;4997004;28;20058;-85
2021/07/17 04:14:10;;;;;;;31.52;20.65;;;18.00;99.90;;;;;;4995975;28;20077;-84
2021/07/17 04:16:37;;;;;;;34.75;22.58;;;18.00;99.90;;;;;;4995864;28;20061;-85
2021/07/17 04:19:04;;;;;;;36.33;20.95;;;18.00;99.90;;;;;;4996278;28;20050;-85
2021/07/17 04:21:31;;;;;;;29.98;19.80;;;17.90;99.90;;;;;;4995988;28;20058;-85
2021/07/17 04:23:58;;;;;;;33.92;21.13;;;18.00;99.90;;;;;;4997027;28;20050;-85
2021/07/17 04:26:25;;;;;;;30.23;20.27;;;18.00;99.90;;;;;;4995785;28;20057;-84
2021/07/17 04:28:51;;;;;;;28.52;19.45;;;18.10;99.90;;;;;;4995845;28;20054;-85
2021/07/17 04:31:18;;;;;;;30.02;19.73;;;18.00;99.90;;;;;;4996990;28;20487;-85
2021/07/17 04:33:45;;;;;;;32.72;20.55;;;18.10;99.90;;;;;;4995585;28;20080;-85
2021/07/17 04:36:12;;;;;;;34.40;21.77;;;18.10;99.90;;;;;;4995940;28;20046;-85
2021/07/17 04:38:39;;;;;;;37.30;22.77;;;18.10;99.90;;;;;;4995915;28;20046;-85
2021/07/17 04:41:06;;;;;;;36.17;21.30;;;18.10;99.90;;;;;;4996611;28;20052;-85
2021/07/17 04:43:33;;;;;;;33.60;20.95;;;18.10;99.90;;;;;;4995596;28;20052;-85
2021/07/17 04:46:00;;;;;;;25.60;19.83;;;18.10;99.90;;;;;;4995372;28;20388;-85
2021/07/17 04:48:27;;;;;;;36.25;22.55;;;18.20;99.90;;;;;;4994722;28;20050;-85
2021/07/17 04:50:54;;;;;;;39.67;20.30;;;18.20;99.90;;;;;;4995571;28;20411;-85
2021/07/17 04:53:20;;;;;;;37.90;20.38;;;18.20;99.90;;;;;;4995660;28;20053;-85
2021/07/17 04:55:47;;;;;;;28.45;19.08;;;18.30;99.90;;;;;;4996699;28;20061;-84
2021/07/17 04:58:14;;;;;;;28.73;20.23;;;18.30;99.90;;;;;;4995934;28;20054;-86
2021/07/17 05:00:41;;;;;;;28.75;17.95;;;18.30;99.90;;;;;;4995874;28;20101;-86
2021/07/17 05:03:08;;;;;;;28.65;18.13;;;18.30;99.90;;;;;;4995469;28;20051;-86
2021/07/17 05:05:35;;;;;;;28.75;19.88;;;18.20;99.90;;;;;;4997323;28;20431;-86
2021/07/17 05:08:02;;;;;;;38.83;20.42;;;18.20;99.90;;;;;;5008360;28;20061;-87
2021/07/17 05:10:29;;;;;;;30.30;18.88;;;18.10;99.90;;;;;;5004971;28;20050;-86
2021/07/17 05:12:56;;;;;;;40.70;22.45;;;18.10;99.90;;;;;;4995866;28;20145;-87
2021/07/17 05:15:23;;;;;;;37.70;19.98;;;18.10;99.90;;;;;;4995788;28;20060;-87
2021/07/17 05:17:50;;;;;;;34.10;20.45;;;18.20;99.90;;;;;;4995534;28;20050;-87
2021/07/17 05:20:18;;;;;;;31.98;20.27;;;18.20;99.90;;;;;;4996678;28;20082;-87
2021/07/17 05:22:46;;;;;;;28.70;19.83;;;18.20;99.90;;;;;;4995378;28;20046;-86
2021/07/17 05:25:12;;;;;;;29.75;19.40;;;18.40;99.90;;;;;;4995451;28;20097;-87
2021/07/17 05:27:39;;;;;;;37.05;21.60;;;18.50;99.90;;;;;;4995192;28;20048;-87
2021/07/17 05:30:08;;;;;;;34.92;20.00;;;18.50;99.90;;;;;;4999060;28;20074;-87
2021/07/17 05:32:35;;;;;;;34.85;21.58;;;18.60;99.90;;;;;;4996151;28;20046;-87
2021/07/17 05:35:02;;;;;;;27.95;18.60;;;18.50;99.90;;;;;;4995145;28;20081;-87
2021/07/17 05:37:29;;;;;;;31.65;18.73;;;18.60;99.90;;;;;;4995126;28;20050;-87
2021/07/17 05:39:57;;;;;;;30.00;18.33;;;18.60;99.90;;;;;;4996199;28;20046;-87
2021/07/17 05:42:24;;;;;;;32.47;18.75;;;18.50;99.90;;;;;;4995362;28;20082;-87
2021/07/17 05:44:51;;;;;;;33.97;19.52;;;18.40;99.90;;;;;;4994877;28;20052;-87
2021/07/17 05:47:18;;;;;;;36.63;18.90;;;18.50;99.90;;;;;;4996438;28;20085;-87
2021/07/17 05:49:48;;;;;;;34.03;20.45;;;18.40;99.90;;;;;;4996014;28;20082;-86
2021/07/17 05:52:15;;;;;;;41.35;20.20;;;18.40;99.90;;;;;;4995162;28;20423;-88
2021/07/17 05:54:42;;;;;;;31.15;17.98;;;18.50;99.90;;;;;;4995004;28;20077;-86
2021/07/17 05:57:09;;;;;;;34.63;19.55;;;18.50;99.90;;;;;;4995329;28;20050;-88
2021/07/17 05:59:36;;;;;;;40.40;21.38;;;18.50;99.90;;;;;;4994382;28;20050;-87
2021/07/17 06:02:06;;;;;;;35.58;20.42;;;18.50;99.90;;;;;;4995292;28;20076;-88
2021/07/17 06:04:33;;;;;;;34.65;18.92;;;18.50;99.90;;;;;;4995463;28;20062;-88
2021/07/17 06:07:00;;;;;;;34.38;18.92;;;18.60;99.90;;;;;;4995211;28;20395;-87
2021/07/17 06:09:27;;;;;;;37.47;18.38;;;18.60;99.90;;;;;;4994680;28;20042;-87
2021/07/17 06:11:53;;;;;;;33.50;20.73;;;18.60;99.90;;;;;;4994406;28;20058;-87
2021/07/17 06:14:21;;;;;;;28.67;18.33;;;18.60;99.90;;;;;;4994652;28;20487;-89
2021/07/17 06:16:48;;;;;;;26.90;17.90;;;18.60;99.90;;;;;;4994539;28;20062;-89
2021/07/17 06:19:15;;;;;;;38.03;18.85;;;18.70;99.90;;;;;;4995389;28;20050;-87
2021/07/17 06:21:42;;;;;;;28.33;17.23;;;18.70;99.90;;;;;;4994898;28;20521;-87
2021/07/17 06:24:09;;;;;;;31.00;16.48;;;18.70;99.90;;;;;;4999853;28;20074;-87
2021/07/17 06:26:35;;;;;;;26.77;16.92;;;18.70;99.90;;;;;;4997482;28;20051;-87
2021/07/17 06:29:02;;;;;;;24.95;17.17;;;18.70;99.90;;;;;;5004014;28;20061;-87
2021/07/17 06:31:29;;;;;;;26.45;15.15;;;18.80;99.90;;;;;;4994782;28;20141;-91
2021/07/17 06:33:56;;;;;;;24.50;15.18;;;18.90;99.90;;;;;;4993803;28;20145;-89
2021/07/17 06:36:23;;;;;;;25.10;14.38;;;18.70;99.90;;;;;;4994161;28;20050;-91
2021/07/17 06:38:49;;;;;;;25.25;15.00;;;18.70;99.90;;;;;;4994867;28;20050;-87
2021/07/17 06:41:16;;;;;;;25.67;14.10;;;18.60;99.90;;;;;;4992863;28;20054;-87
2021/07/17 06:43:43;;;;;;;23.02;15.55;;;18.60;99.90;;;;;;4993387;28;20057;-88
2021/07/17 06:46:11;;;;;;;28.70;14.68;;;18.50;99.90;;;;;;4993786;28;20093;-86
2021/07/17 06:48:38;;;;;;;22.75;14.00;;;18.50;99.90;;;;;;4994250;28;20141;-87
2021/07/17 06:51:05;;;;;;;25.92;14.20;;;18.40;99.90;;;;;;4995132;28;20050;-87
2021/07/17 06:53:34;;;;;;;22.08;14.30;;;18.40;99.90;;;;;;4994481;28;20096;-88
2021/07/17 06:56:01;;;;;;;27.25;15.13;;;18.50;99.90;;;;;;4995228;28;20054;-85
2021/07/17 06:58:28;;;;;;;25.77;13.85;;;18.70;99.90;;;;;;4993645;28;20061;-86
2021/07/17 07:00:56;;;;;;;19.73;12.25;;;18.90;99.90;;;;;;4994662;28;20049;-87
2021/07/17 07:03:24;;;;;;;19.80;12.77;;;19.00;99.90;;;;;;4993578;28;20085;-85
2021/07/17 07:05:51;;;;;;;19.63;13.13;;;19.10;99.90;;;;;;4994708;28;20050;-87
2021/07/17 07:08:18;;;;;;;23.73;13.40;;;19.10;99.90;;;;;;4994555;28;20043;-89
2021/07/17 07:10:45;;;;;;;20.33;13.48;;;19.00;99.90;;;;;;4992813;28;20149;-87
2021/07/17 07:13:15;;;;;;;21.00;11.85;;;18.90;99.90;;;;;;4994316;28;20051;-87
2021/07/17 07:15:42;;;;;;;17.65;12.07;;;18.80;99.90;;;;;;4993434;28;20054;-85
2021/07/17 07:18:11;;;;;;;22.02;11.98;;;18.80;99.90;;;;;;4993819;28;20060;-85
2021/07/17 07:20:39;;;;;;;19.05;11.43;;;18.90;99.90;;;;;;4980266;28;20593;-87
2021/07/17 07:23:06;;;;;;;16.67;11.23;;;18.80;99.90;;;;;;4993569;28;20464;-87
2021/07/17 07:25:34;;;;;;;17.52;12.23;;;18.70;99.90;;;;;;4993312;28;20046;-87
2021/07/17 07:28:01;;;;;;;16.60;13.20;;;18.80;99.90;;;;;;4993860;28;20054;-87
2021/07/17 07:30:28;;;;;;;15.95;12.40;;;18.70;99.90;;;;;;4993610;28;20046;-87
2021/07/17 07:32:55;;;;;;;14.40;11.65;;;18.80;99.90;;;;;;4993563;28;20097;-87
2021/07/17 07:35:24;;;;;;;16.48;11.38;;;19.00;99.90;;;;;;4993223;28;20137;-88
2021/07/17 07:37:51;;;;;;;15.10;10.82;;;19.20;99.90;;;;;;4993601;28;20050;-88
2021/07/17 07:40:20;;;;;;;14.45;11.48;;;19.20;99.90;;;;;;4993784;28;20480;-87
2021/07/17 07:42:47;;;;;;;16.63;12.05;;;19.20;99.90;;;;;;4994190;28;20050;-88
2021/07/17 07:45:14;;;;;;;18.52;11.30;;;19.30;99.90;;;;;;5004413;28;20443;-87
2021/07/17 07:47:42;;;;;;;20.60;12.75;;;19.30;99.90;;;;;;5001743;28;20134;-88
2021/07/17 07:50:10;;;;;;;15.27;11.75;;;19.10;99.90;;;;;;4993139;28;20137;-88
2021/07/17 07:52:38;;;;;;;17.27;12.80;;;19.20;99.90;;;;;;4993377;28;20085;-87
2021/07/17 07:55:06;;;;;;;14.43;11.77;;;19.20;99.90;;;;;;4993959;28;20050;-87
2021/07/17 07:57:33;;;;;;;13.90;11.45;;;19.40;99.90;;;;;;4994247;28;20078;-87
2021/07/17 08:00:00;;;;;;;19.65;12.20;;;19.60;99.90;;;;;;4993835;28;20050;-88
2021/07/17 08:02:27;;;;;;;18.88;11.82;;;19.60;99.90;;;;;;4994242;28;20057;-88
2021/07/17 08:04:54;;;;;;;16.35;11.85;;;19.50;99.90;;;;;;4993639;28;20054;-86
2021/07/17 08:07:21;;;;;;;16.67;11.85;;;19.30;99.90;;;;;;4993592;28;20122;-88
2021/07/17 08:09:51;;;;;;;18.95;12.55;;;19.30;99.90;;;;;;4992816;28;20050;-87
2021/07/17 08:12:18;;;;;;;16.75;11.80;;;19.20;99.90;;;;;;4992886;28;20055;-87
2021/07/17 08:14:45;;;;;;;19.23;12.45;;;19.30;99.90;;;;;;4992824;28;20495;-87
2021/07/17 08:17:12;;;;;;;15.65;11.52;;;19.40;99.90;;;;;;4993153;28;20050;-87
2021/07/17 08:19:39;;;;;;;24.02;14.40;;;19.50;99.90;;;;;;4993665;28;20062;-87
2021/07/17 08:22:06;;;;;;;25.95;14.27;;;19.70;99.90;;;;;;4994418;28;20057;-88
2021/07/17 08:24:32;;;;;;;25.88;14.50;;;19.80;99.90;;;;;;4996955;28;20422;-88
2021/07/17 08:27:01;;;;;;;24.20;14.95;;;19.80;99.90;;;;;;5001995;28;20118;-89
2021/07/17 08:29:27;;;;;;;24.05;13.93;;;19.70;99.90;;;;;;4997520;28;20056;-89
2021/07/17 08:31:54;;;;;;;25.27;15.20;;;19.60;99.90;;;;;;4996997;28;20488;-90
2021/07/17 08:34:22;;;;;;;23.48;15.23;;;19.50;99.90;;;;;;4998242;28;20054;-89
2021/07/17 08:36:53;;;;;;;22.67;13.98;;;19.50;99.90;;;;;;4999469;28;20058;-89
2021/07/17 08:39:20;;;;;;;27.92;16.27;;;19.40;99.90;;;;;;4996437;28;20072;-89
2021/07/17 08:41:49;;;;;;;29.58;16.08;;;19.40;99.90;;;;;;4996445;28;20054;-88
2021/07/17 08:44:17;;;;;;;25.23;16.05;;;19.50;99.90;;;;;;4996417;28;20054;-88
2021/07/17 08:46:45;;;;;;;24.52;15.40;;;19.60;99.90;;;;;;4996476;28;20153;-91
2021/07/17 08:49:12;;;;;;;24.38;14.55;;;19.60;99.90;;;;;;4996444;28;20051;-89
2021/07/17 08:51:39;;;;;;;23.35;15.32;;;19.50;99.90;;;;;;4997071;28;20069;-88
2021/07/17 08:54:07;;;;;;;23.30;15.70;;;19.40;99.90;;;;;;4996147;28;20481;-88
2021/07/17 08:56:33;;;;;;;28.67;15.70;;;19.40;99.90;;;;;;4996011;28;20050;-87
2021/07/17 08:59:00;;;;;;;29.02;18.23;;;19.30;99.90;;;;;;4995859;28;20065;-87
2021/07/17 09:01:27;;;;;;;25.58;16.23;;;19.20;99.90;;;;;;4997148;28;20054;-87
2021/07/17 09:03:54;;;;;;;24.42;17.35;;;19.20;99.90;;;;;;5006150;28;20042;-87
2021/07/17 09:06:20;;;;;;;28.85;17.98;;;19.30;99.90;;;;;;5004354;28;20131;-87
2021/07/17 09:08:51;;;;;;;25.20;15.23;;;19.60;99.90;;;;;;4999185;28;20069;-86
2021/07/17 09:11:34;;;;;;;22.05;14.30;;;20.00;99.90;;;;;;4996977;28;20068;-87
2021/07/17 09:14:01;;;;;;;21.80;13.32;;;20.40;99.90;;;;;;4995305;28;20575;-86
2021/07/17 09:16:32;;;;;;;19.40;12.10;;;20.60;99.90;;;;;;4995507;28;20069;-87
2021/07/17 09:19:00;;;;;;;18.33;11.93;;;20.70;99.90;;;;;;4995016;28;20058;-86
2021/07/17 09:21:38;;;;;;;19.67;12.30;;;20.40;99.90;;;;;;4995301;28;20050;-87
2021/07/17 09:24:12;;;;;;;21.00;13.10;;;20.30;99.90;;;;;;4995421;28;20058;-90
2021/07/17 09:26:49;;;;;;;19.35;13.82;;;20.20;99.90;;;;;;4995227;28;20073;-87
2021/07/17 09:29:15;;;;;;;22.95;14.32;;;20.20;99.90;;;;;;4995274;28;20054;-87
2021/07/17 09:31:48;;;;;;;22.45;14.48;;;20.00;99.90;;;;;;4995214;28;20497;-87
2021/07/17 09:34:17;;;;;;;25.80;14.63;;;19.90;99.90;;;;;;4994580;28;20081;-86
2021/07/17 09:36:53;;;;;;;22.35;13.98;;;19.90;99.90;;;;;;4995086;28;20046;-86
2021/07/17 09:39:22;;;;;;;20.75;13.60;;;20.00;99.90;;;;;;4994815;28;20359;-87
2021/07/17 09:42:02;;;;;;;24.75;14.88;;;19.90;99.90;;;;;;4992997;28;20089;-87
2021/07/17 09:44:30;;;;;;;23.33;15.63;;;19.70;99.90;;;;;;4994523;28;20055;-86
2021/07/17 09:46:57;;;;;;;21.42;13.70;;;19.60;99.90;;;;;;4994149;28;20057;-87
2021/07/17 09:49:26;;;;;;;22.50;14.05;;;19.60;99.90;;;;;;4994405;28;20101;-87
2021/07/17 09:52:22;;;;;;;20.58;13.60;;;19.60;99.90;;;;;;4994341;28;20411;-86
2021/07/17 09:55:20;;;;;;;26.88;14.82;;;19.70;99.90;;;;;;4994157;28;20146;-87
2021/07/17 09:57:50;;;;;;;29.40;15.85;;;19.70;99.90;;;;;;4993623;28;20471;-86
2021/07/17 10:00:24;;;;;;;31.45;16.17;;;19.80;99.90;;;;;;4994044;28;20050;-86
2021/07/17 10:02:52;;;;;;;24.38;13.75;;;19.90;99.90;;;;;;4994287;28;20057;-87
2021/07/17 10:05:36;;;;;;;26.08;13.25;;;20.10;99.90;;;;;;4994071;28;20057;-86
2021/07/17 10:08:13;;;;;;;18.92;11.57;;;20.10;99.90;;;;;;4993633;28;20421;-87
2021/07/17 10:10:40;;;;;;;21.77;13.93;;;20.20;99.90;;;;;;4994832;28;20072;-87
2021/07/17 10:13:06;;;;;;;24.55;13.68;;;20.20;99.90;;;;;;4995333;28;20054;-87
2021/07/17 10:15:33;;;;;;;26.90;14.70;;;20.30;99.90;;;;;;4994425;28;20060;-87
2021/07/17 10:18:23;;;;;;;29.50;15.20;;;20.10;99.90;;;;;;4994129;28;20057;-87
2021/07/17 10:20:55;;;;;;;26.73;14.10;;;20.10;99.90;;;;;;4994438;28;20058;-88
2021/07/17 10:23:22;;;;;;;27.58;14.48;;;20.10;99.90;;;;;;4997554;28;20054;-87
2021/07/17 10:25:49;;;;;;;27.80;15.93;;;20.10;99.90;;;;;;4995899;28;20081;-87
2021/07/17 10:28:16;;;;;;;29.10;16.38;;;20.20;99.90;;;;;;4994241;28;20050;-88
2021/07/17 10:30:43;;;;;;;31.75;16.10;;;20.10;99.90;;;;;;4994198;28;20138;-88
2021/07/17 10:33:11;;;;;;;30.25;17.48;;;20.10;99.90;;;;;;4994316;28;20101;-87
2021/07/17 10:35:39;;;;;;;29.63;16.80;;;20.10;99.90;;;;;;4993957;28;20133;-88
2021/07/17 10:38:09;;;;;;;32.47;17.92;;;20.10;99.90;;;;;;4978116;28;20051;-88
2021/07/17 10:40:38;;;;;;;25.40;15.95;;;19.90;99.90;;;;;;4995085;28;20073;-88
2021/07/17 10:43:06;;;;;;;32.92;17.70;;;19.90;99.90;;;;;;4995897;28;20054;-86
2021/07/17 10:45:36;;;;;;;31.60;17.90;;;19.90;99.90;;;;;;4993154;28;20058;-87
2021/07/17 10:48:19;;;;;;;25.38;15.77;;;19.90;99.90;;;;;;4994097;28;20051;-88
2021/07/17 10:50:46;;;;;;;27.13;15.80;;;20.00;99.90;;;;;;4994255;28;20053;-88
2021/07/17 10:53:42;;;;;;;29.90;16.05;;;20.20;99.90;;;;;;4993842;28;20402;-87
2021/07/17 10:56:27;;;;;;;29.75;14.77;;;20.20;99.90;;;;;;4994017;28;20077;-87
2021/07/17 10:58:59;;;;;;;34.90;16.77;;;20.00;99.90;;;;;;4993614;28;20050;-88
2021/07/17 11:01:27;;;;;;;39.28;17.33;;;19.90;99.90;;;;;;4994300;28;20054;-87
2021/07/17 11:03:54;;;;;;;29.58;16.77;;;20.00;99.90;;;;;;4993856;28;20113;-87
2021/07/17 11:06:33;;;;;;;27.35;16.33;;;19.90;99.90;;;;;;4993617;28;20058;-87
2021/07/17 11:09:27;;;;;;;30.58;16.25;;;20.00;99.90;;;;;;4993904;28;20079;-88
2021/07/17 11:12:24;;;;;;;27.73;15.95;;;20.10;99.90;;;;;;4993544;28;20124;-87
2021/07/17 11:14:56;;;;;;;33.75;16.60;;;20.20;99.90;;;;;;4993674;28;20046;-87
2021/07/17 11:17:43;;;;;;;28.10;16.13;;;20.30;99.90;;;;;;4993658;28;20141;-88
2021/07/17 11:20:19;;;;;;;31.75;16.67;;;20.40;99.90;;;;;;4993608;28;20133;-88
2021/07/17 11:22:58;;;;;;;28.85;16.00;;;20.60;99.90;;;;;;4993742;28;20488;-89
2021/07/17 11:25:24;;;;;;;27.02;14.88;;;20.50;99.90;;;;;;4993659;28;20074;-88
2021/07/17 11:27:51;;;;;;;25.52;14.95;;;20.70;99.90;;;;;;4997745;28;20185;-88
2021/07/17 11:30:19;;;;;;;26.70;13.98;;;20.90;99.90;;;;;;5000319;28;20046;-88
2021/07/17 11:33:04;;;;;;;34.60;16.77;;;21.10;99.90;;;;;;4996771;28;20077;-89
2021/07/17 11:35:32;;;;;;;32.92;14.88;;;21.20;99.90;;;;;;4993508;28;20082;-88
2021/07/17 11:37:59;;;;;;;26.83;13.55;;;21.20;99.90;;;;;;4993486;28;20128;-89
2021/07/17 11:40:26;;;;;;;26.90;13.30;;;21.50;99.90;;;;;;4993863;28;20137;-88
2021/07/17 11:43:03;;;;;;;21.27;13.27;;;21.80;99.90;;;;;;5005909;28;20117;-88
2021/07/17 11:45:31;;;;;;;26.88;12.40;;;22.00;99.90;;;;;;5013605;28;20050;-88
2021/07/17 11:48:12;;;;;;;22.48;12.25;;;22.20;99.90;;;;;;4993430;28;20140;-88
2021/07/17 11:50:40;;;;;;;27.60;13.57;;;22.20;99.90;;;;;;4993246;28;20053;-89
2021/07/17 11:53:15;;;;;;;24.20;13.43;;;22.20;99.90;;;;;;4993521;28;20470;-89
2021/07/17 11:55:42;;;;;;;30.60;13.30;;;22.40;99.90;;;;;;4993566;28;20050;-86
2021/07/17 11:58:17;;;;;;;22.80;11.75;;;22.50;99.90;;;;;;4996873;28;20497;-87
2021/07/17 12:00:44;;;;;;;20.30;12.77;;;22.60;99.90;;;;;;4997253;28;20054;-88
2021/07/17 12:03:11;;;;;;;31.27;13.63;;;22.60;99.90;;;;;;4997040;28;20074;-87
2021/07/17 12:05:38;;;;;;;26.05;14.23;;;22.40;99.90;;;;;;4997035;28;20149;-88
2021/07/17 12:08:05;;;;;;;22.63;13.00;;;22.30;99.90;;;;;;4996833;28;20078;-88
2021/07/17 12:10:32;;;;;;;22.27;13.23;;;22.30;99.90;;;;;;4996924;28;20054;-88
2021/07/17 12:13:03;;;;;;;22.65;12.82;;;22.30;99.90;;;;;;4996601;28;20466;-89
2021/07/17 12:15:37;;;;;;;23.02;13.88;;;22.50;99.90;;;;;;4997031;28;20074;-89
2021/07/17 12:18:06;;;;;;;23.05;13.45;;;22.30;99.90;;;;;;4997315;28;20070;-88
2021/07/17 12:20:41;;;;;;;27.20;14.35;;;22.20;99.90;;;;;;4998165;28;20060;-88
2021/07/17 12:23:13;;;;;;;23.92;14.13;;;22.00;99.90;;;;;;4997862;28;20133;-89
2021/07/17 12:25:41;;;;;;;26.05;13.93;;;22.00;99.90;;;;;;4997376;28;20070;-91
2021/07/17 12:28:19;;;;;;;24.05;14.43;;;22.00;99.90;;;;;;4997356;28;20050;-90
2021/07/17 12:30:50;;;;;;;20.95;13.90;;;22.10;99.90;;;;;;4997302;28;20410;-89
2021/07/17 12:33:20;;;;;;;19.17;12.95;;;22.10;99.90;;;;;;4997042;28;20054;-89
2021/07/17 12:35:50;;;;;;;18.05;13.15;;;22.00;99.90;;;;;;4997323;28;20046;-89